Long Bennington, United Kingdom
Current Conditions -  °F | °C
As of 5:50 PM on Friday 24 Oct 2014 (Local Time) from EGYD Reporting Station
Broken Clouds Broken Clouds  
Wind Chill: 55°   Ceiling: 1100
Heat Index: 55°   Visibility: 0.75mi
Dew Point: 55°   Wind: 7mph
Humidity: 100%   Direction: 290°WNW
Pressure: 29.83"   Gusts: NA
Location:  52.99°N, 0.76°W
Report Text: EGYD 241650Z AUTO 29006KT 1200 // FEW005/// BKN011/// 13/13 Q1010
Loading
Personal Weather Stations






























Interactive Weather Map New forecast layout! Learn more

10-Day Weather Forecast

Advertisements
Track Severe Weather on mobile